createdAt,value
2023-05-05T00:02:29.339Z,101448.41
2023-05-05T00:07:32.412Z,101450.19
2023-05-05T00:12:36.875Z,101447.56
2023-05-05T00:17:39.869Z,101456.41
2023-05-05T00:22:42.878Z,101461.59
2023-05-05T00:27:47.148Z,101440.38
2023-05-05T00:32:50.903Z,101429.75
2023-05-05T00:37:54.073Z,101421.66
2023-05-05T00:42:59.558Z,101417.91
2023-05-05T00:48:02.844Z,101407.22
2023-05-05T00:53:07.852Z,101438.00
2023-05-05T00:58:13.405Z,101436.06
2023-05-05T01:03:16.792Z,101444.16
2023-05-05T01:08:30.353Z,101454.78
2023-05-05T01:13:50.899Z,101518.78
2023-05-05T01:19:01.966Z,101505.69
2023-05-05T01:24:40.057Z,101462.31
2023-05-05T01:30:00.982Z,101480.19
2023-05-05T01:35:14.860Z,101472.91
2023-05-05T01:40:22.683Z,101474.41
2023-05-05T01:45:29.761Z,101474.09
2023-05-05T01:50:35.635Z,101463.47
2023-05-05T01:55:40.619Z,101465.50
2023-05-05T02:00:44.595Z,101466.09
2023-05-05T02:05:51.365Z,101464.81
2023-05-05T02:10:55.751Z,101482.41
2023-05-05T02:15:59.335Z,101472.56
2023-05-05T02:21:04.121Z,101472.47
2023-05-05T02:26:09.283Z,101472.44
2023-05-05T02:31:14.969Z,101482.63
2023-05-05T02:36:22.828Z,101490.97
2023-05-05T02:41:34.807Z,101500.47
2023-05-05T02:46:44.181Z,101507.22
2023-05-05T02:51:48.904Z,101500.69
2023-05-05T02:56:59.903Z,101496.00
2023-05-05T03:02:15.645Z,101506.38
2023-05-05T03:07:26.730Z,101508.59
2023-05-05T03:12:38.575Z,101484.59
2023-05-05T03:17:54.020Z,101471.97
2023-05-05T03:22:59.493Z,101485.91
2023-05-05T03:28:02.507Z,101500.00
2023-05-05T03:33:05.852Z,101498.00
2023-05-05T03:38:10.480Z,101498.63
2023-05-05T03:43:13.601Z,101505.41
2023-05-05T03:48:16.944Z,101514.06
2023-05-05T03:53:22.082Z,101519.06
2023-05-05T03:58:25.463Z,101525.06
2023-05-05T04:03:28.652Z,101523.94
2023-05-05T04:08:33.831Z,101519.31
2023-05-05T04:13:36.924Z,101531.63
2023-05-05T04:18:40.211Z,101521.75
2023-05-05T04:23:44.781Z,101528.81
2023-05-05T04:28:47.841Z,101535.72
2023-05-05T04:33:52.621Z,101536.59
2023-05-05T04:38:57.273Z,101555.97
2023-05-05T04:44:00.729Z,101535.66
2023-05-05T04:49:05.806Z,101554.47
2023-05-05T04:54:11.244Z,101543.13
2023-05-05T04:59:14.390Z,101541.56
2023-05-05T05:04:18.634Z,101545.13
2023-05-05T05:09:23.308Z,101547.06
2023-05-05T05:14:28.060Z,101553.53
2023-05-05T05:19:31.487Z,101578.72
2023-05-05T05:24:36.476Z,101573.44
2023-05-05T05:29:39.630Z,101579.06
2023-05-05T05:34:42.685Z,101577.03
2023-05-05T05:39:53.932Z,101574.16
2023-05-05T05:44:59.541Z,101582.19
2023-05-05T05:50:04.945Z,101580.31
2023-05-05T05:55:10.764Z,101580.59
2023-05-05T06:00:16.929Z,101591.50
2023-05-05T06:05:27.039Z,101602.28
2023-05-05T06:10:32.230Z,101611.38
2023-05-05T06:15:42.869Z,101622.44
2023-05-05T06:20:51.739Z,101612.25
2023-05-05T06:25:58.365Z,101617.25
2023-05-05T06:31:01.426Z,101629.13
2023-05-05T06:36:04.892Z,101616.47
2023-05-05T06:41:09.305Z,101616.81
2023-05-05T06:46:12.673Z,101628.66
2023-05-05T06:51:16.273Z,101638.34
2023-05-05T06:56:21.044Z,101632.94
2023-05-05T07:01:24.192Z,101629.22
2023-05-05T07:06:27.381Z,101630.88
2023-05-05T07:11:31.975Z,101637.09
2023-05-05T07:16:37.309Z,101629.97
2023-05-05T07:21:40.751Z,101636.94
2023-05-05T07:26:47.213Z,101637.63
2023-05-05T07:31:50.961Z,101644.72
2023-05-05T07:36:56.468Z,101641.94
2023-05-05T07:42:01.732Z,101637.06
2023-05-05T07:47:04.791Z,101638.19
2023-05-05T07:52:08.022Z,101639.81
2023-05-05T07:57:12.715Z,101636.31
2023-05-05T08:02:15.734Z,101652.97
2023-05-05T08:07:18.768Z,101640.50
2023-05-05T08:12:23.272Z,101641.53
2023-05-05T08:17:27.251Z,101650.97
2023-05-05T08:22:30.613Z,101655.88
2023-05-05T08:27:35.534Z,101656.16
2023-05-05T08:32:39.226Z,101659.78
2023-05-05T08:37:42.283Z,101660.66
2023-05-05T08:42:46.687Z,101656.16
2023-05-05T08:47:51.133Z,101657.09
2023-05-05T08:52:59.247Z,101651.72
2023-05-05T08:58:04.281Z,101669.59
2023-05-05T09:03:08.683Z,101655.28
2023-05-05T09:08:12.427Z,101658.88
2023-05-05T09:13:17.319Z,101658.88
2023-05-05T09:18:20.485Z,101645.47
2023-05-05T09:23:24.033Z,101644.50
2023-05-05T09:28:28.458Z,101657.06
2023-05-05T09:33:32.151Z,101659.75
2023-05-05T09:38:36.565Z,101664.03
2023-05-05T09:43:52.975Z,101657.28
2023-05-05T09:48:56.257Z,101666.69
2023-05-05T09:53:59.417Z,101677.50
2023-05-05T09:59:11.095Z,101691.28
2023-05-05T10:04:33.165Z,101700.03
2023-05-05T10:09:36.500Z,101710.00
2023-05-05T10:14:41.597Z,101716.88
2023-05-05T10:19:45.994Z,101735.34
2023-05-05T10:24:54.351Z,101737.44
2023-05-05T10:30:04.834Z,101742.13
2023-05-05T10:35:11.379Z,101718.97
2023-05-05T10:40:15.234Z,101707.16
2023-05-05T10:45:19.910Z,101700.88
2023-05-05T10:50:31.004Z,101684.81
2023-05-05T10:55:41.069Z,101708.28
2023-05-05T11:00:52.982Z,101712.94
2023-05-05T11:06:13.669Z,101711.16
2023-05-05T11:11:16.669Z,101717.22
2023-05-05T11:16:48.288Z,101709.84
2023-05-05T11:22:02.186Z,101717.56
2023-05-05T11:27:05.726Z,101723.72
2023-05-05T11:32:16.651Z,101728.09
2023-05-05T11:37:24.365Z,101732.59
2023-05-05T11:42:27.810Z,101718.38
2023-05-05T11:47:35.155Z,101727.38
2023-05-05T11:52:38.130Z,101727.53
2023-05-05T11:57:41.330Z,101707.44
2023-05-05T12:02:46.170Z,101711.81
2023-05-05T12:07:51.257Z,101700.69
2023-05-05T12:12:55.486Z,101700.00
2023-05-05T12:18:02.808Z,101714.50
2023-05-05T12:23:08.143Z,101707.91
2023-05-05T12:28:11.307Z,101714.91
2023-05-05T12:33:16.027Z,101721.13
2023-05-05T12:38:19.136Z,101712.56
2023-05-05T12:43:29.328Z,101716.94
2023-05-05T12:48:34.392Z,101725.59
2023-05-05T12:53:37.619Z,101744.03
2023-05-05T12:58:52.224Z,101752.56
2023-05-05T13:04:13.960Z,101753.78
2023-05-05T13:09:26.798Z,101748.22
2023-05-05T13:14:30.681Z,101747.09
2023-05-05T13:19:41.862Z,101745.97
2023-05-05T13:24:51.794Z,101733.31
2023-05-05T13:29:56.017Z,101726.19
2023-05-05T13:35:08.400Z,101713.66
2023-05-05T13:40:13.737Z,101701.31
2023-05-05T13:45:19.830Z,101686.81
2023-05-05T13:50:24.954Z,101667.94
2023-05-05T13:55:29.496Z,101641.84
2023-05-05T14:00:32.735Z,101619.19
2023-05-05T14:05:37.905Z,101618.44
2023-05-05T14:10:41.396Z,101621.09
2023-05-05T14:15:44.426Z,101625.22
2023-05-05T14:20:48.831Z,101633.09
2023-05-05T14:25:52.072Z,101636.72
2023-05-05T14:30:55.689Z,101651.00
2023-05-05T14:36:00.154Z,101654.78
2023-05-05T14:41:03.182Z,101653.75
2023-05-05T14:46:09.371Z,101662.22
2023-05-05T14:51:15.251Z,101669.56
2023-05-05T14:56:21.855Z,101663.63
2023-05-05T15:01:25.947Z,101651.56
2023-05-05T15:06:30.576Z,101644.69
2023-05-05T15:11:33.516Z,101652.16
2023-05-05T15:16:36.696Z,101643.91
2023-05-05T15:21:41.253Z,101637.78
2023-05-05T15:26:44.269Z,101635.09
2023-05-05T15:31:47.345Z,101639.44
2023-05-05T15:36:52.366Z,101649.88
2023-05-05T15:41:55.592Z,101650.53
2023-05-05T15:46:58.566Z,101658.06
2023-05-05T15:52:02.995Z,101641.78
2023-05-05T15:57:06.326Z,101638.56
2023-05-05T16:02:09.642Z,101626.16
2023-05-05T16:07:14.392Z,101628.03
2023-05-05T16:12:17.349Z,101616.56
2023-05-05T16:17:22.954Z,101615.94
2023-05-05T16:22:27.566Z,101619.88
2023-05-05T16:27:30.669Z,101620.56
2023-05-05T16:32:33.789Z,101613.81
2023-05-05T16:37:38.502Z,101619.41
2023-05-05T16:42:43.675Z,101611.06
2023-05-05T16:47:47.583Z,101605.38
2023-05-05T16:52:52.318Z,101617.66
2023-05-05T16:57:55.386Z,101608.91
2023-05-05T17:02:58.796Z,101601.78
2023-05-05T17:08:03.968Z,101596.19
2023-05-05T17:13:08.977Z,101609.34
2023-05-05T17:18:12.115Z,101606.53
2023-05-05T17:23:16.798Z,101604.78
2023-05-05T17:28:20.125Z,101596.66
2023-05-05T17:33:23.179Z,101600.97
2023-05-05T17:38:30.114Z,101605.41
2023-05-05T17:43:33.480Z,101596.34
2023-05-05T17:48:36.475Z,101585.53
2023-05-05T17:53:41.918Z,101603.22
2023-05-05T17:58:44.966Z,101599.63
2023-05-05T18:03:48.092Z,101601.28
2023-05-05T18:08:52.839Z,101590.50
2023-05-05T18:13:56.255Z,101594.00
2023-05-05T18:18:59.214Z,101593.84
2023-05-05T18:24:15.782Z,101596.22
2023-05-05T18:29:23.421Z,101602.94
2023-05-05T18:34:26.528Z,101611.44
2023-05-05T18:39:30.978Z,101611.06
2023-05-05T18:44:35.005Z,101610.63
2023-05-05T18:49:38.009Z,101621.72
2023-05-05T18:54:42.361Z,101635.38
2023-05-05T18:59:45.311Z,101635.72
2023-05-05T19:04:50.713Z,101641.34
2023-05-05T19:09:55.128Z,101637.34
2023-05-05T19:14:58.179Z,101636.75
2023-05-05T19:20:01.762Z,101655.72
2023-05-05T19:25:06.866Z,101649.84
2023-05-05T19:30:11.399Z,101673.44
2023-05-05T19:35:14.434Z,101661.50
2023-05-05T19:40:18.932Z,101675.19
2023-05-05T19:45:22.178Z,101675.75
2023-05-05T19:50:26.328Z,101673.47
2023-05-05T19:55:30.937Z,101679.38
2023-05-05T20:00:34.176Z,101691.50
2023-05-05T20:05:38.497Z,101680.41
2023-05-05T20:10:43.027Z,101694.41
2023-05-05T20:15:46.247Z,101691.41
2023-05-05T20:20:49.670Z,101685.91
2023-05-05T20:25:54.216Z,101682.25
2023-05-05T20:30:57.345Z,101683.63
2023-05-05T20:36:00.550Z,101679.50
2023-05-05T20:41:05.028Z,101686.41
2023-05-05T20:46:13.553Z,101679.88
2023-05-05T20:51:16.686Z,101672.50
2023-05-05T20:56:23.454Z,101663.44
2023-05-05T21:01:26.727Z,101680.94
2023-05-05T21:06:30.766Z,101660.66
2023-05-05T21:11:35.160Z,101662.25
2023-05-05T21:16:38.333Z,101665.75
2023-05-05T21:21:41.386Z,101668.22
2023-05-05T21:26:46.410Z,101673.28
2023-05-05T21:31:49.815Z,101664.13
2023-05-05T21:36:52.884Z,101672.78
2023-05-05T21:41:57.983Z,101677.94
2023-05-05T21:47:01.022Z,101668.19
2023-05-05T21:52:04.096Z,101671.59
2023-05-05T21:57:08.496Z,101667.84
2023-05-05T22:02:15.152Z,101678.34
2023-05-05T22:07:18.762Z,101673.75
2023-05-05T22:12:23.281Z,101671.50
2023-05-05T22:17:26.264Z,101663.69
2023-05-05T22:22:29.413Z,101658.25
2023-05-05T22:27:33.851Z,101656.44
2023-05-05T22:32:36.906Z,101647.25
2023-05-05T22:37:40.227Z,101645.31
2023-05-05T22:42:44.850Z,101652.06
2023-05-05T22:47:48.019Z,101653.63
2023-05-05T22:52:51.593Z,101632.94
2023-05-05T22:57:56.164Z,101646.09
2023-05-05T23:02:59.306Z,101651.84
2023-05-05T23:08:02.670Z,101654.13
2023-05-05T23:13:07.326Z,101635.34
2023-05-05T23:18:10.613Z,101641.06
2023-05-05T23:23:13.823Z,101645.22
2023-05-05T23:28:18.601Z,101652.03
2023-05-05T23:33:21.706Z,101649.06
2023-05-05T23:38:24.854Z,101647.75
2023-05-05T23:43:29.524Z,101646.75
2023-05-05T23:48:32.421Z,101631.47
2023-05-05T23:53:35.388Z,101631.53
2023-05-05T23:58:39.784Z,101629.44
